createdAt,value
2018-12-16T00:01:17.529Z,0.70
2018-12-16T00:03:45.011Z,0.70
2018-12-16T00:06:12.650Z,0.70
2018-12-16T00:08:40.095Z,0.70
2018-12-16T00:11:07.563Z,0.70
2018-12-16T00:13:35.132Z,0.60
2018-12-16T00:16:02.597Z,0.60
2018-12-16T00:18:30.089Z,0.60
2018-12-16T00:20:57.531Z,0.70
2018-12-16T00:23:24.993Z,0.70
2018-12-16T00:25:52.499Z,0.70
2018-12-16T00:28:20.007Z,0.70
2018-12-16T00:30:47.448Z,0.70
2018-12-16T00:33:14.908Z,0.70
2018-12-16T00:35:42.379Z,0.70
2018-12-16T00:38:09.889Z,0.70
2018-12-16T00:40:37.350Z,0.60
2018-12-16T00:43:04.805Z,0.70
2018-12-16T00:45:32.268Z,0.70
2018-12-16T00:47:59.741Z,0.70
2018-12-16T00:50:27.388Z,0.70
2018-12-16T00:52:54.859Z,0.70
2018-12-16T00:55:22.361Z,0.70
2018-12-16T00:57:49.820Z,0.70
2018-12-16T01:00:17.657Z,0.70
2018-12-16T01:02:45.097Z,0.70
2018-12-16T01:05:12.557Z,0.70
2018-12-16T01:07:39.990Z,0.80
2018-12-16T01:10:08.703Z,0.70
2018-12-16T01:12:36.149Z,0.70
2018-12-16T01:15:04.048Z,0.70
2018-12-16T01:17:31.524Z,0.80
2018-12-16T01:19:58.998Z,0.70
2018-12-16T01:22:26.553Z,0.70
2018-12-16T01:24:54.034Z,0.80
2018-12-16T01:27:21.510Z,0.80
2018-12-16T01:29:48.987Z,0.80
2018-12-16T01:32:16.429Z,0.80
2018-12-16T01:34:43.938Z,0.70
2018-12-16T01:37:11.493Z,0.80
2018-12-16T01:39:38.999Z,0.80
2018-12-16T01:42:06.616Z,0.80
2018-12-16T01:44:34.069Z,0.80
2018-12-16T01:47:01.552Z,0.90
2018-12-16T01:49:29.064Z,0.90
2018-12-16T01:51:56.548Z,0.90
2018-12-16T01:54:24.012Z,0.90
2018-12-16T01:56:51.487Z,0.90
2018-12-16T01:59:18.969Z,0.80
2018-12-16T02:01:52.213Z,0.90
2018-12-16T02:04:19.675Z,0.90
2018-12-16T02:06:47.220Z,0.80
2018-12-16T02:09:14.715Z,0.80
2018-12-16T02:11:42.308Z,0.80
2018-12-16T02:14:09.740Z,0.90
2018-12-16T02:16:37.274Z,0.90
2018-12-16T02:19:04.754Z,0.90
2018-12-16T02:21:32.192Z,0.90
2018-12-16T02:23:59.740Z,0.90
2018-12-16T02:26:27.240Z,0.90
2018-12-16T02:28:54.809Z,1.00
2018-12-16T02:31:22.252Z,1.00
2018-12-16T02:33:49.704Z,1.00
2018-12-16T02:36:17.187Z,1.00
2018-12-16T02:38:44.803Z,1.00
2018-12-16T02:41:12.252Z,1.00
2018-12-16T02:43:39.826Z,1.00
2018-12-16T02:46:07.395Z,1.00
2018-12-16T02:48:34.876Z,1.00
2018-12-16T02:51:02.379Z,0.90
2018-12-16T02:53:29.843Z,0.90
2018-12-16T02:55:57.305Z,1.00
2018-12-16T02:58:24.756Z,1.00
2018-12-16T03:00:53.099Z,1.00
2018-12-16T03:03:20.640Z,1.00
2018-12-16T03:05:48.122Z,0.90
2018-12-16T03:08:15.615Z,0.90
2018-12-16T03:10:43.076Z,1.00
2018-12-16T03:13:10.530Z,1.00
2018-12-16T03:15:38.023Z,1.00
2018-12-16T03:18:05.461Z,1.00
2018-12-16T03:20:32.957Z,1.10
2018-12-16T03:23:00.493Z,1.00
2018-12-16T03:25:28.066Z,1.10
2018-12-16T03:27:55.534Z,1.10
2018-12-16T03:30:23.467Z,1.10
2018-12-16T03:32:51.123Z,1.10
2018-12-16T03:35:18.697Z,1.10
2018-12-16T03:37:46.130Z,1.10
2018-12-16T03:40:13.601Z,1.10
2018-12-16T03:42:41.096Z,1.10
2018-12-16T03:45:08.716Z,1.10
2018-12-16T03:47:36.229Z,1.20
2018-12-16T03:50:04.247Z,1.20
2018-12-16T03:52:31.744Z,1.20
2018-12-16T03:54:59.196Z,1.20
2018-12-16T03:57:26.659Z,1.20
2018-12-16T03:59:54.115Z,1.20
2018-12-16T04:02:22.349Z,1.20
2018-12-16T04:04:49.792Z,1.20
2018-12-16T04:07:17.368Z,1.20
2018-12-16T04:09:44.863Z,1.20
2018-12-16T04:12:12.351Z,1.20
2018-12-16T04:14:41.313Z,1.10
2018-12-16T04:17:09.402Z,1.10
2018-12-16T04:19:36.836Z,1.10
2018-12-16T04:22:04.324Z,1.10
2018-12-16T04:24:31.777Z,1.20
2018-12-16T04:26:59.246Z,1.10
2018-12-16T04:29:26.695Z,1.10
2018-12-16T04:31:54.449Z,1.10
2018-12-16T04:34:21.942Z,1.20
2018-12-16T04:36:49.512Z,1.10
2018-12-16T04:39:16.979Z,1.10
2018-12-16T04:41:44.449Z,1.10
2018-12-16T04:44:11.952Z,1.10
2018-12-16T04:46:39.435Z,1.00
2018-12-16T04:49:06.884Z,1.00
2018-12-16T04:51:34.367Z,0.90
2018-12-16T04:54:02.031Z,0.90
2018-12-16T04:56:29.542Z,0.90
2018-12-16T04:58:57.087Z,0.90
2018-12-16T05:01:24.523Z,0.90
2018-12-16T05:03:52.054Z,0.80
2018-12-16T05:06:19.718Z,0.80
2018-12-16T05:08:47.331Z,0.80
2018-12-16T05:11:14.796Z,0.80
2018-12-16T05:13:42.272Z,0.80
2018-12-16T05:16:09.729Z,0.80
2018-12-16T05:18:37.312Z,0.80
2018-12-16T05:21:04.835Z,0.80
2018-12-16T05:23:32.346Z,0.80
2018-12-16T05:25:59.792Z,0.70
2018-12-16T05:28:27.265Z,0.70
2018-12-16T05:30:54.753Z,0.70
2018-12-16T05:33:22.216Z,0.70
2018-12-16T05:35:49.725Z,0.70
2018-12-16T05:38:17.180Z,0.70
2018-12-16T05:40:44.734Z,0.70
2018-12-16T05:43:12.201Z,0.70
2018-12-16T05:45:39.665Z,0.70
2018-12-16T05:48:07.141Z,0.70
2018-12-16T05:50:34.593Z,0.70
2018-12-16T05:53:02.091Z,0.80
2018-12-16T05:55:29.594Z,0.80
2018-12-16T05:57:57.046Z,0.80
2018-12-16T06:00:24.491Z,0.80
2018-12-16T06:02:52.048Z,0.80
2018-12-16T06:05:19.517Z,0.80
2018-12-16T06:07:46.992Z,0.80
2018-12-16T06:10:14.448Z,0.90
2018-12-16T06:12:41.911Z,0.90
2018-12-16T06:15:09.439Z,0.90
2018-12-16T06:17:36.953Z,0.90
2018-12-16T06:20:04.841Z,0.90
2018-12-16T06:22:32.292Z,0.90
2018-12-16T06:24:59.756Z,0.90
2018-12-16T06:27:27.210Z,0.90
2018-12-16T06:29:54.988Z,0.90
2018-12-16T06:32:23.180Z,0.90
2018-12-16T06:34:50.670Z,0.90
2018-12-16T06:37:18.150Z,0.90
2018-12-16T06:39:45.624Z,0.90
2018-12-16T06:42:13.121Z,0.90
2018-12-16T06:44:40.589Z,0.90
2018-12-16T06:47:08.057Z,0.90
2018-12-16T06:49:35.534Z,0.90
2018-12-16T06:52:03.001Z,0.90
2018-12-16T06:54:31.053Z,0.90
2018-12-16T06:56:58.627Z,0.90
2018-12-16T06:59:26.101Z,0.90
2018-12-16T07:01:53.640Z,0.90
2018-12-16T07:04:21.155Z,0.90
2018-12-16T07:06:48.620Z,0.90
2018-12-16T07:09:16.097Z,1.00
2018-12-16T07:11:43.896Z,1.00
2018-12-16T07:14:11.345Z,1.00
2018-12-16T07:16:38.840Z,1.00
2018-12-16T07:19:06.288Z,0.90
2018-12-16T07:21:33.813Z,0.90
2018-12-16T07:24:01.399Z,0.90
2018-12-16T07:26:28.886Z,0.90
2018-12-16T07:28:56.324Z,0.90
2018-12-16T07:31:23.818Z,0.90
2018-12-16T07:33:51.333Z,0.90
2018-12-16T07:36:18.801Z,1.00
2018-12-16T07:38:46.283Z,0.90
2018-12-16T07:41:13.770Z,1.00
2018-12-16T07:43:41.284Z,1.00
2018-12-16T07:46:08.782Z,1.10
2018-12-16T07:48:36.229Z,1.00
2018-12-16T07:51:03.754Z,1.10
2018-12-16T07:53:31.234Z,1.10
2018-12-16T07:55:58.692Z,1.20
2018-12-16T07:58:26.243Z,1.20
2018-12-16T08:00:53.751Z,1.20
2018-12-16T08:03:21.267Z,1.40
2018-12-16T08:05:48.864Z,1.50
2018-12-16T08:08:16.327Z,1.60
2018-12-16T08:10:43.947Z,1.70
2018-12-16T08:13:11.427Z,1.80
2018-12-16T08:15:38.867Z,1.80
2018-12-16T08:18:06.434Z,1.90
2018-12-16T08:20:33.891Z,2.00
2018-12-16T08:23:01.365Z,2.00
2018-12-16T08:25:28.859Z,2.10
2018-12-16T08:27:56.340Z,2.20
2018-12-16T08:30:23.898Z,2.20
2018-12-16T08:32:51.360Z,2.30
2018-12-16T08:35:18.820Z,2.30
2018-12-16T08:37:46.328Z,2.30
2018-12-16T08:40:13.795Z,2.40
2018-12-16T08:42:41.274Z,2.40
2018-12-16T08:45:08.708Z,2.40
2018-12-16T08:47:36.219Z,2.50
2018-12-16T08:50:04.066Z,2.60
2018-12-16T08:52:31.599Z,2.60
2018-12-16T08:54:59.051Z,2.60
2018-12-16T08:57:26.723Z,2.60
2018-12-16T08:59:54.177Z,2.80
2018-12-16T09:02:21.823Z,2.90
2018-12-16T09:04:49.305Z,2.90
2018-12-16T09:07:16.766Z,2.90
2018-12-16T09:09:44.569Z,2.90
2018-12-16T09:12:12.073Z,2.90
2018-12-16T09:14:39.926Z,3.00
2018-12-16T09:17:07.437Z,3.10
2018-12-16T09:19:35.010Z,3.10
2018-12-16T09:22:02.479Z,3.10
2018-12-16T09:24:37.047Z,3.20
2018-12-16T09:26:59.449Z,3.20
2018-12-16T09:29:26.929Z,3.30
2018-12-16T09:31:54.379Z,3.30
2018-12-16T09:34:22.033Z,3.30
2018-12-16T09:36:49.604Z,3.40
2018-12-16T09:39:17.222Z,3.40
2018-12-16T09:41:45.603Z,3.40
2018-12-16T09:44:13.130Z,3.50
2018-12-16T09:46:40.598Z,3.50
2018-12-16T09:49:08.052Z,3.50
2018-12-16T09:51:35.523Z,3.50
2018-12-16T09:54:03.116Z,3.50
2018-12-16T09:56:30.730Z,3.50
2018-12-16T09:58:58.212Z,3.60
2018-12-16T10:01:25.840Z,3.60
2018-12-16T10:03:53.295Z,3.60
2018-12-16T10:06:20.783Z,3.70
2018-12-16T10:08:48.249Z,3.70
2018-12-16T10:11:15.850Z,3.80
2018-12-16T10:13:43.329Z,3.80
2018-12-16T10:16:10.831Z,3.90
2018-12-16T10:18:38.308Z,4.00
2018-12-16T10:21:05.819Z,4.00
2018-12-16T10:23:33.311Z,4.10
2018-12-16T10:26:00.803Z,4.10
2018-12-16T10:28:28.302Z,4.20
2018-12-16T10:30:55.788Z,4.20
2018-12-16T10:33:23.246Z,4.20
2018-12-16T10:35:50.709Z,4.20
2018-12-16T10:38:18.192Z,4.20
2018-12-16T10:40:45.686Z,4.20
2018-12-16T10:43:13.143Z,4.20
2018-12-16T10:45:40.614Z,4.40
2018-12-16T10:48:08.090Z,4.70
2018-12-16T10:50:35.551Z,4.90
2018-12-16T10:53:03.029Z,5.20
2018-12-16T10:55:30.473Z,5.50
2018-12-16T10:57:57.936Z,5.80
2018-12-16T11:00:31.125Z,6.00
2018-12-16T11:02:58.601Z,6.10
2018-12-16T11:05:27.610Z,6.30
2018-12-16T11:07:55.081Z,6.40
2018-12-16T11:10:22.597Z,6.40
2018-12-16T11:12:50.150Z,6.40
2018-12-16T11:15:17.665Z,6.30
2018-12-16T11:17:45.133Z,6.30
2018-12-16T11:20:12.701Z,6.30
2018-12-16T11:22:40.170Z,6.30
2018-12-16T11:25:09.112Z,6.20
2018-12-16T11:27:36.578Z,6.20
2018-12-16T11:30:05.896Z,6.20
2018-12-16T11:32:33.376Z,6.20
2018-12-16T11:35:00.856Z,6.20
2018-12-16T11:37:28.291Z,6.20
2018-12-16T11:39:55.794Z,6.20
2018-12-16T11:42:23.261Z,6.30
2018-12-16T11:44:50.754Z,6.30
2018-12-16T11:47:18.209Z,6.40
2018-12-16T11:49:45.705Z,6.50
2018-12-16T11:52:13.176Z,6.70
2018-12-16T11:54:40.690Z,6.70
2018-12-16T11:57:08.144Z,6.70
2018-12-16T11:59:35.626Z,6.70
2018-12-16T12:02:03.100Z,6.60
2018-12-16T12:04:30.565Z,6.50
2018-12-16T12:06:58.071Z,6.40
2018-12-16T12:09:25.612Z,6.30
2018-12-16T12:11:53.103Z,6.30
2018-12-16T12:14:20.582Z,6.10
2018-12-16T12:16:48.051Z,6.10
2018-12-16T12:19:15.494Z,6.00
2018-12-16T12:21:43.005Z,6.00
2018-12-16T12:24:10.446Z,5.90
2018-12-16T12:26:37.923Z,5.90
2018-12-16T12:29:05.417Z,5.80
2018-12-16T12:31:32.926Z,5.70
2018-12-16T12:34:00.421Z,5.70
2018-12-16T12:36:27.908Z,5.70
2018-12-16T12:38:55.373Z,5.60
2018-12-16T12:41:22.850Z,5.60
2018-12-16T12:43:50.329Z,5.60
2018-12-16T12:46:17.920Z,5.60
2018-12-16T12:48:45.425Z,5.60
2018-12-16T12:51:12.975Z,5.60
2018-12-16T12:53:40.536Z,5.60
2018-12-16T12:56:07.999Z,5.60
2018-12-16T12:58:35.481Z,5.60
2018-12-16T13:01:02.934Z,5.60
2018-12-16T13:03:30.421Z,5.60
2018-12-16T13:05:57.890Z,5.60
2018-12-16T13:08:25.351Z,5.60
2018-12-16T13:10:52.852Z,5.60
2018-12-16T13:13:20.316Z,5.60
2018-12-16T13:15:47.790Z,5.60
2018-12-16T13:18:15.288Z,5.60
2018-12-16T13:20:42.764Z,5.60
2018-12-16T13:23:10.237Z,5.50
2018-12-16T13:25:49.681Z,5.50
2018-12-16T13:28:17.169Z,5.50
2018-12-16T13:30:44.643Z,5.50
2018-12-16T13:33:12.135Z,5.50
2018-12-16T13:35:39.838Z,5.50
2018-12-16T13:38:07.285Z,5.40
2018-12-16T13:40:34.770Z,5.50
2018-12-16T13:43:02.250Z,5.50
2018-12-16T13:45:29.819Z,5.50
2018-12-16T13:47:57.418Z,5.50
2018-12-16T13:50:24.929Z,5.50
2018-12-16T13:52:52.505Z,5.50
2018-12-16T13:55:20.035Z,5.50
2018-12-16T13:57:47.913Z,5.50
2018-12-16T14:00:15.459Z,5.50
2018-12-16T14:02:42.932Z,5.50
2018-12-16T14:05:10.453Z,5.40
2018-12-16T14:07:37.985Z,5.40
2018-12-16T14:10:06.519Z,5.50
2018-12-16T14:12:33.999Z,5.50
2018-12-16T14:15:01.450Z,5.40
2018-12-16T14:17:28.949Z,5.50
2018-12-16T14:19:56.413Z,5.40
2018-12-16T14:22:23.906Z,5.50
2018-12-16T14:24:51.376Z,5.40
2018-12-16T14:27:18.865Z,5.40
2018-12-16T14:29:46.338Z,5.50
2018-12-16T14:32:13.835Z,5.50
2018-12-16T14:34:41.414Z,5.50
2018-12-16T14:37:08.992Z,5.50
2018-12-16T14:39:36.508Z,5.50
2018-12-16T14:42:04.084Z,5.50
2018-12-16T14:44:31.553Z,5.50
2018-12-16T14:46:59.076Z,5.50
2018-12-16T14:49:26.568Z,5.50
2018-12-16T14:51:54.071Z,5.50
2018-12-16T14:54:21.587Z,5.50
2018-12-16T14:56:49.039Z,5.50
2018-12-16T14:59:16.530Z,5.50
2018-12-16T15:01:43.986Z,5.50
2018-12-16T15:04:11.476Z,5.50
2018-12-16T15:06:38.983Z,5.50
2018-12-16T15:09:06.688Z,5.50
2018-12-16T15:11:34.264Z,5.50
2018-12-16T15:14:01.715Z,5.50
2018-12-16T15:16:29.214Z,5.50
2018-12-16T15:18:56.738Z,5.50
2018-12-16T15:21:24.236Z,5.50
2018-12-16T15:23:51.741Z,5.50
2018-12-16T15:26:19.252Z,5.50
2018-12-16T15:28:46.745Z,5.40
2018-12-16T15:31:14.237Z,5.40
2018-12-16T15:33:41.706Z,5.40
2018-12-16T15:36:09.184Z,5.40
2018-12-16T15:38:36.651Z,5.40
2018-12-16T15:41:04.144Z,5.40
2018-12-16T15:43:31.649Z,5.40
2018-12-16T15:45:59.118Z,5.40
2018-12-16T15:48:26.639Z,5.40
2018-12-16T15:50:54.155Z,5.40
2018-12-16T15:53:21.647Z,5.40
2018-12-16T15:55:49.205Z,5.30
2018-12-16T15:58:16.680Z,5.30
2018-12-16T16:00:44.157Z,5.30
2018-12-16T16:03:11.650Z,5.30
2018-12-16T16:05:39.247Z,5.30
2018-12-16T16:08:06.711Z,5.30
2018-12-16T16:10:34.181Z,5.30
2018-12-16T16:13:01.640Z,5.30
2018-12-16T16:15:29.100Z,5.30
2018-12-16T16:17:56.585Z,5.30
2018-12-16T16:20:24.090Z,5.30
2018-12-16T16:22:51.567Z,5.30
2018-12-16T16:25:19.052Z,5.30
2018-12-16T16:27:46.566Z,5.30
2018-12-16T16:30:14.022Z,5.30
2018-12-16T16:32:41.519Z,5.30
2018-12-16T16:35:08.995Z,5.30
2018-12-16T16:37:36.961Z,5.30
2018-12-16T16:40:05.321Z,5.30
2018-12-16T16:42:32.798Z,5.20
2018-12-16T16:45:00.283Z,5.20
2018-12-16T16:47:27.762Z,5.20
2018-12-16T16:49:55.347Z,5.20
2018-12-16T16:52:22.852Z,5.10
2018-12-16T16:54:50.336Z,5.10
2018-12-16T16:57:17.822Z,5.00
2018-12-16T16:59:45.325Z,4.90
2018-12-16T17:02:12.848Z,4.90
2018-12-16T17:04:40.318Z,4.90
2018-12-16T17:07:07.809Z,4.80
2018-12-16T17:09:35.403Z,4.80
2018-12-16T17:12:02.851Z,4.70
2018-12-16T17:14:30.341Z,4.80
2018-12-16T17:16:57.897Z,4.80
2018-12-16T17:19:25.780Z,4.90
2018-12-16T17:21:53.436Z,4.90
2018-12-16T17:24:21.491Z,4.80
2018-12-16T17:26:49.010Z,4.80
2018-12-16T17:29:16.518Z,4.80
2018-12-16T17:31:44.540Z,4.80
2018-12-16T17:35:01.057Z,4.70
2018-12-16T17:37:28.520Z,4.70
2018-12-16T17:39:55.997Z,4.70
2018-12-16T17:42:23.483Z,4.60
2018-12-16T17:44:50.981Z,4.60
2018-12-16T17:47:18.471Z,4.60
2018-12-16T17:49:45.942Z,4.60
2018-12-16T17:52:13.382Z,4.50
2018-12-16T17:54:40.903Z,4.60
2018-12-16T17:57:08.380Z,4.50
2018-12-16T17:59:35.846Z,4.50
2018-12-16T18:02:03.806Z,4.60
2018-12-16T18:04:31.235Z,4.50
2018-12-16T18:06:58.708Z,4.50
2018-12-16T18:09:26.241Z,4.50
2018-12-16T18:11:53.798Z,4.60
2018-12-16T18:14:21.235Z,4.60
2018-12-16T18:16:48.740Z,4.60
2018-12-16T18:19:16.208Z,4.60
2018-12-16T18:21:44.387Z,4.60
2018-12-16T18:24:11.878Z,4.50
2018-12-16T18:26:44.073Z,4.60
2018-12-16T18:29:08.860Z,4.60
2018-12-16T18:31:36.421Z,4.60
2018-12-16T18:34:04.253Z,4.60
2018-12-16T18:36:31.744Z,4.60
2018-12-16T18:38:59.231Z,4.60
2018-12-16T18:41:26.720Z,4.60
2018-12-16T18:43:54.345Z,4.60
2018-12-16T18:46:21.835Z,4.60
2018-12-16T18:48:49.348Z,4.60
2018-12-16T18:51:16.835Z,4.60
2018-12-16T18:53:44.290Z,4.60
2018-12-16T18:56:11.795Z,4.60
2018-12-16T18:58:39.298Z,4.60
2018-12-16T19:01:06.869Z,4.60
2018-12-16T19:03:34.471Z,4.50
2018-12-16T19:06:02.566Z,4.50
2018-12-16T19:08:30.087Z,4.50
2018-12-16T19:10:57.681Z,4.50
2018-12-16T19:13:25.139Z,4.50
2018-12-16T19:15:52.666Z,4.50
2018-12-16T19:18:20.494Z,4.50
2018-12-16T19:20:48.005Z,4.50
2018-12-16T19:23:15.490Z,4.50
2018-12-16T19:25:43.068Z,4.60
2018-12-16T19:28:10.556Z,4.60
2018-12-16T19:30:38.112Z,4.60
2018-12-16T19:33:05.565Z,4.60
2018-12-16T19:35:33.073Z,4.50
2018-12-16T19:38:01.675Z,4.60
2018-12-16T19:40:30.122Z,4.60
2018-12-16T19:42:57.607Z,4.60
2018-12-16T19:45:25.106Z,4.70
2018-12-16T19:47:52.679Z,4.70
2018-12-16T19:50:20.237Z,4.80
2018-12-16T19:52:47.763Z,4.80
2018-12-16T19:55:16.405Z,4.80
2018-12-16T19:57:43.934Z,4.80
2018-12-16T20:00:11.953Z,4.80
2018-12-16T20:02:39.820Z,4.80
2018-12-16T20:05:09.950Z,4.80
2018-12-16T20:07:37.664Z,4.80
2018-12-16T20:10:05.698Z,4.80
2018-12-16T20:12:33.197Z,4.80
2018-12-16T20:15:00.686Z,4.80
2018-12-16T20:17:28.313Z,4.90
2018-12-16T20:19:55.797Z,4.90
2018-12-16T20:22:23.352Z,4.90
2018-12-16T20:24:50.836Z,4.90
2018-12-16T20:27:18.502Z,4.90
2018-12-16T20:29:46.030Z,4.90
2018-12-16T20:32:13.571Z,4.90
2018-12-16T20:34:41.102Z,4.90
2018-12-16T20:37:08.559Z,4.90
2018-12-16T20:39:36.040Z,4.90
2018-12-16T20:42:03.501Z,4.90
2018-12-16T20:44:31.128Z,4.90
2018-12-16T20:46:58.618Z,5.00
2018-12-16T20:49:26.144Z,4.90
2018-12-16T20:51:53.617Z,4.90
2018-12-16T20:54:21.235Z,4.90
2018-12-16T20:56:48.711Z,4.90
2018-12-16T20:59:16.294Z,4.90
2018-12-16T21:01:43.946Z,4.90
2018-12-16T21:04:11.426Z,4.90
2018-12-16T21:06:38.888Z,4.90
2018-12-16T21:09:06.453Z,4.90
2018-12-16T21:11:39.606Z,4.90
2018-12-16T21:14:12.953Z,4.90
2018-12-16T21:16:46.051Z,4.80
2018-12-16T21:19:14.068Z,4.70
2018-12-16T21:21:41.707Z,4.70
2018-12-16T21:24:09.291Z,4.70
2018-12-16T21:26:36.849Z,4.60
2018-12-16T21:29:04.321Z,4.60
2018-12-16T21:31:31.840Z,4.60
2018-12-16T21:33:59.301Z,4.60
2018-12-16T21:36:26.777Z,4.60
2018-12-16T21:38:54.234Z,4.60
2018-12-16T21:41:21.726Z,4.60
2018-12-16T21:43:49.258Z,4.50
2018-12-16T21:46:16.752Z,4.50
2018-12-16T21:48:44.209Z,4.60
2018-12-16T21:51:11.692Z,4.60
2018-12-16T21:53:39.149Z,4.50
2018-12-16T21:56:06.608Z,4.50
2018-12-16T21:58:34.079Z,4.50
2018-12-16T22:01:01.575Z,4.50
2018-12-16T22:03:29.030Z,4.40
2018-12-16T22:05:56.507Z,4.40
2018-12-16T22:08:24.008Z,4.40
2018-12-16T22:10:51.474Z,4.40
2018-12-16T22:13:18.988Z,4.30
2018-12-16T22:15:46.460Z,4.30
2018-12-16T22:18:14.447Z,4.30
2018-12-16T22:20:41.884Z,4.30
2018-12-16T22:23:09.412Z,4.30
2018-12-16T22:25:36.893Z,4.20
2018-12-16T22:28:04.378Z,4.20
2018-12-16T22:30:31.875Z,4.20
2018-12-16T22:32:59.358Z,4.20
2018-12-16T22:35:26.822Z,4.20
2018-12-16T22:37:54.326Z,4.20
2018-12-16T22:40:22.087Z,4.10
2018-12-16T22:42:49.707Z,4.10
2018-12-16T22:45:17.171Z,4.10
2018-12-16T22:47:44.684Z,4.10
2018-12-16T22:50:12.363Z,4.10
2018-12-16T22:52:39.839Z,4.10
2018-12-16T22:55:07.412Z,4.10
2018-12-16T22:57:34.894Z,4.10
2018-12-16T23:00:02.549Z,4.20
2018-12-16T23:02:30.008Z,4.10
2018-12-16T23:04:57.488Z,4.10
2018-12-16T23:07:24.955Z,4.10
2018-12-16T23:09:52.421Z,4.10
2018-12-16T23:12:19.904Z,4.10
2018-12-16T23:14:47.369Z,4.10
2018-12-16T23:17:14.808Z,4.10
2018-12-16T23:19:44.254Z,4.10
2018-12-16T23:22:11.729Z,4.20
2018-12-16T23:24:39.563Z,4.20
2018-12-16T23:27:07.019Z,4.10
2018-12-16T23:29:34.466Z,4.20
2018-12-16T23:32:01.940Z,4.20
2018-12-16T23:34:29.425Z,4.20
2018-12-16T23:36:56.874Z,4.20
2018-12-16T23:39:24.355Z,4.20
2018-12-16T23:41:51.831Z,4.20
2018-12-16T23:44:19.291Z,4.20
2018-12-16T23:46:46.756Z,4.20
2018-12-16T23:49:14.210Z,4.20
2018-12-16T23:51:41.672Z,4.20
2018-12-16T23:54:09.158Z,4.20
2018-12-16T23:56:36.753Z,4.30
2018-12-16T23:59:04.322Z,4.20
